CheckWX is a tool to help pilots better visualize weather data.  It is not intended as a substitute for an official pre-flight weather briefing.

18:55:50 UTC

FAUP TAF
Pierre Van Ryneveld Airport
Upington, South Africa
TAF FAUP 211600Z 2118/2218 19005KT CAVOK TX28/2212Z TN06/2204Z BECMG 2206/2208 02008KT

May-21@
18:00 UTC

May-21 @ 18:00 UTC

May-22@
06:00 UTC

May-22 @ 06:00 UTC

TAF FAUP 211600Z 2118/2218 19005KT CAVOK TX28/2212Z TN06/2204Z
Wind
  • 190° at 5 KTS
Cloud Levels
  • No significant clouds

May-22@
06:00 UTC

May-22 @ 06:00 UTC

May-22@
18:00 UTC

May-22 @ 18:00 UTC

BECMG 2206/2208 02008KT

Becoming

Becoming Conditions expected by Wed, May 22, 2019 @ 08:00 UTC

Wind
  • 020° at 8 KTS
Cloud Levels
  • No significant clouds